Tropical Cyclones
[Index]
Main Index Home Page Stock Weather Photos Extreme Storms Discussion Storm News and Storm Chasing Reports Tropical Cyclones / Hurricanes / Typhoons Weather Data and Links Wild Fires / Bushfires Weather Observation Techniques Weather Picture Catalogue Tornado Pictures and Reports Stock Video Footage and DVDs for sale
Season 1974-1975 Tropical Cyclone ROBYN-DEBORAH Track Map
Season 1974-1975 Summaries: [BoM-AU] [JTWC-AU] [JTWC-SIO] [JTWC-SPAC] [JTWC-SH]
<<- Previous TC | JTWC 1974-1975 Season | Next TC ->>

click for intensity scale information  Lat/long Grid: Show Hide

 Date Labels: Show Hide

Joint Typhoon Warning Centre Cyclone Data

Name: ROBYN-DEBORAH
Number: 886 / 7514

15 Jan 1975 18:00 UTC to 28 Jan 1975 18:00 UTC

    date/time    lat    long     hPa   cat  kts
1975-01-15 18   14.8    92.0                              
1975-01-16 00   14.9    91.0                              
1975-01-16 06   15.0    90.0                              
1975-01-16 12   15.1    89.0                              
1975-01-16 18   15.3    88.1                              
1975-01-17 00   15.4    87.2                              
1975-01-17 06   15.6    86.3                              
1975-01-17 12   16.1    85.4                              
1975-01-17 18   16.7    84.5                              
1975-01-18 00   16.9    83.6                              
1975-01-18 06   17.2    82.7                              
1975-01-18 12   17.4    81.6                              
1975-01-18 18   17.7    80.4                              
1975-01-19 00   17.9    79.3                              
1975-01-19 06   18.1    78.1                              
1975-01-19 12   18.4    77.1                              
1975-01-19 18   18.8    76.1                              
1975-01-20 00   19.1    75.4                              
1975-01-20 06   19.4    74.6                              
1975-01-20 12   19.6    73.2                              
1975-01-20 18   19.7    71.7                              
1975-01-21 00   19.9    70.5                              
1975-01-21 06   20.2    69.3                              
1975-01-21 12   20.7    68.1                              
1975-01-21 18   21.2    66.9                              
1975-01-22 00   21.8    65.9                              
1975-01-22 06   22.3    65.0                              
1975-01-22 12   22.5    63.9                              
1975-01-22 18   22.7    62.7                              
1975-01-23 00   22.9    61.6                              
1975-01-23 06   23.1    60.4                              
1975-01-23 12   23.5    58.5                              
1975-01-23 18   24.0    56.3                              
1975-01-24 00   24.2    54.8                              
1975-01-24 06   24.4    53.2                              
1975-01-24 12   24.7    51.4                              
1975-01-24 18   24.9    49.7                              
1975-01-25 00   25.1    48.2                              
1975-01-25 06   25.3    46.6                              
1975-01-25 12   25.5    45.1                              
1975-01-25 18   25.6    43.5                              
1975-01-26 00   25.8    42.0                              
1975-01-26 06   26.2    40.6                              
1975-01-26 12   27.0    39.6                              
1975-01-26 18   27.8    39.2                              
1975-01-27 00   28.5    39.0                              
1975-01-27 06   29.3    39.5                              
1975-01-27 12   30.5    40.6                              
1975-01-27 18   31.8    41.9                              
1975-01-28 00   32.8    43.3                              
1975-01-28 06   33.9    45.0                              
1975-01-28 12   35.4    47.9                              
1975-01-28 18   37.3    52.1                              
Winds are 1-min average.

Tropical cyclone tracks developed by Michael Bath using data from the Joint Typhoon Warning Centre Best Tracks and Google Maps.


[Australian Severe Weather index] [Copyright Notice] [Email Contacts] [Search This Site] [Privacy Policy]
Document: tropical_cyclone_robyn-deborah.htm Updated: 18 September 2016